Time;durP1;ratioP1;P1;durP2;ratioP2;P2;SDS_P1;SDS_P2;PMS_P1;PMS_P2;Temp;Humidity;BMP_temperature;BMP_pressure;BME280_temperature;BME280_humidity;BME280_pressure;Samples;Min_cycle;Max_cycle;Signal;HPM_P1;HPM_P2
2022/07/08 00:01:15;;;;;;;3.17;2.92;;;13.10;99.90;;;;;;6243606;23;20008;-81
2022/07/08 00:03:43;;;;;;;6.00;5.03;;;13.10;99.90;;;;;;6217857;23;20028;-81
2022/07/08 00:06:12;;;;;;;4.22;3.85;;;13.10;99.90;;;;;;6242736;23;20466;-82
2022/07/08 00:08:40;;;;;;;6.82;4.35;;;13.10;99.90;;;;;;6214885;23;20329;-80
2022/07/08 00:11:08;;;;;;;3.85;3.45;;;13.10;99.90;;;;;;6240708;22;20029;-79
2022/07/08 00:13:36;;;;;;;5.45;5.05;;;13.10;99.90;;;;;;6227417;23;20017;-80
2022/07/08 00:16:05;;;;;;;8.40;3.75;;;13.10;99.90;;;;;;6166274;23;20035;-79
2022/07/08 00:18:33;;;;;;;8.07;4.38;;;13.00;99.90;;;;;;6248667;23;20024;-80
2022/07/08 00:21:01;;;;;;;7.30;3.83;;;13.00;99.90;;;;;;6253370;23;20443;-80
2022/07/08 00:23:29;;;;;;;4.22;3.70;;;13.00;99.90;;;;;;6216201;23;20032;-80
2022/07/08 00:25:57;;;;;;;10.32;3.65;;;13.00;99.90;;;;;;6190957;22;20039;-80
2022/07/08 00:28:27;;;;;;;4.75;3.88;;;13.00;99.90;;;;;;6225390;23;20012;-80
2022/07/08 00:30:57;;;;;;;9.45;4.22;;;13.00;99.90;;;;;;6215854;23;20028;-80
2022/07/08 00:33:30;;;;;;;4.65;4.25;;;13.00;99.90;;;;;;6190692;23;20023;-80
2022/07/08 00:36:00;;;;;;;5.80;5.30;;;13.00;99.90;;;;;;6217072;23;20023;-80
2022/07/08 00:38:28;;;;;;;3.88;3.25;;;13.00;99.90;;;;;;6222190;23;20016;-79
2022/07/08 00:40:56;;;;;;;6.10;4.25;;;12.90;99.90;;;;;;6252856;23;20020;-80
2022/07/08 00:43:41;;;;;;;6.03;4.38;;;12.90;99.90;;;;;;6215396;23;20028;-81
2022/07/08 00:46:11;;;;;;;5.55;4.70;;;12.90;99.90;;;;;;6250584;23;20024;-80
2022/07/08 00:49:24;;;;;;;3.80;3.50;;;12.90;99.90;;;;;;6216370;23;20031;-88
2022/07/08 00:55:46;;;;;;;4.15;3.75;;;12.90;99.90;;;;;;6165513;23;20031;-79
2022/07/08 00:58:17;;;;;;;39.28;6.03;;;12.90;99.90;;;;;;6224926;23;20032;-79
2022/07/08 01:00:46;;;;;;;5.32;3.78;;;12.90;99.90;;;;;;6255768;23;20012;-87
2022/07/08 01:03:14;;;;;;;6.50;4.55;;;12.90;99.90;;;;;;6193174;23;20020;-88
2022/07/08 01:05:42;;;;;;;3.85;3.55;;;12.90;99.90;;;;;;6193570;23;20039;-80
2022/07/08 01:08:11;;;;;;;10.98;4.68;;;12.90;99.90;;;;;;6217321;23;20043;-79
2022/07/08 01:10:40;;;;;;;6.32;5.00;;;12.90;99.90;;;;;;6248152;23;20732;-81
2022/07/08 01:13:10;;;;;;;5.55;4.38;;;12.90;99.90;;;;;;6250566;23;20008;-79
2022/07/08 01:15:38;;;;;;;4.40;3.95;;;12.90;99.90;;;;;;6246196;23;20035;-80
2022/07/08 01:18:07;;;;;;;7.32;4.20;;;12.90;99.90;;;;;;6192772;23;20024;-80
2022/07/08 01:20:45;;;;;;;4.30;3.90;;;12.90;99.90;;;;;;6244387;23;20012;-79
2022/07/08 01:23:13;;;;;;;6.05;4.25;;;12.90;99.90;;;;;;6221711;23;20028;-79
2022/07/08 01:25:41;;;;;;;4.32;3.90;;;12.90;99.90;;;;;;6168353;23;20019;-80
2022/07/08 01:28:09;;;;;;;4.65;4.25;;;12.90;99.90;;;;;;6244430;23;20024;-79
2022/07/08 01:30:37;;;;;;;4.15;3.85;;;12.90;99.90;;;;;;6251047;23;20024;-79
2022/07/08 01:33:05;;;;;;;5.95;4.30;;;12.90;99.90;;;;;;6217131;23;20016;-80
2022/07/08 01:35:36;;;;;;;4.03;3.65;;;12.90;99.90;;;;;;6219328;23;20032;-79
2022/07/08 01:38:10;;;;;;;5.57;5.05;;;12.90;99.90;;;;;;6192471;23;20028;-80
2022/07/08 01:40:38;;;;;;;7.30;5.32;;;12.90;99.90;;;;;;6192645;23;20031;-80
2022/07/08 01:43:06;;;;;;;5.05;4.65;;;12.90;99.90;;;;;;6192561;23;20032;-80
2022/07/08 01:45:34;;;;;;;5.80;5.10;;;12.90;99.90;;;;;;6255406;23;20009;-80
2022/07/08 01:48:02;;;;;;;5.10;3.67;;;12.90;99.90;;;;;;6244517;23;20027;-79
2022/07/08 01:50:30;;;;;;;16.33;4.22;;;12.90;99.90;;;;;;6250581;23;20024;-79
2022/07/08 01:52:59;;;;;;;5.93;3.63;;;12.90;99.90;;;;;;6254860;23;20008;-80
2022/07/08 01:55:27;;;;;;;5.78;4.68;;;12.90;99.90;;;;;;6246822;23;20031;-80
2022/07/08 01:57:55;;;;;;;7.25;5.15;;;12.90;99.90;;;;;;6191937;22;20020;-80
2022/07/08 02:00:22;;;;;;;4.85;4.40;;;12.90;99.90;;;;;;6217115;23;20459;-80
2022/07/08 02:02:50;;;;;;;14.27;4.28;;;12.90;99.90;;;;;;6248723;23;20468;-79
2022/07/08 02:05:18;;;;;;;7.30;5.18;;;12.90;99.90;;;;;;6247401;23;20023;-79
2022/07/08 02:07:46;;;;;;;4.70;4.30;;;12.90;99.90;;;;;;6244599;22;20367;-80
2022/07/08 02:10:14;;;;;;;9.48;6.95;;;12.90;99.90;;;;;;6191571;23;20015;-80
2022/07/08 02:12:43;;;;;;;5.10;4.63;;;12.90;99.90;;;;;;6191167;23;20028;-79
2022/07/08 02:15:15;;;;;;;5.05;4.55;;;12.90;99.90;;;;;;6221221;23;20098;-79
2022/07/08 02:17:43;;;;;;;5.72;5.22;;;12.90;99.90;;;;;;6254362;23;20020;-82
2022/07/08 02:20:13;;;;;;;39.20;6.30;;;12.90;99.90;;;;;;6243607;23;20024;-81
2022/07/08 02:22:43;;;;;;;6.90;4.68;;;13.00;99.90;;;;;;6216796;23;20038;-79
2022/07/08 02:25:11;;;;;;;10.90;5.55;;;13.00;99.90;;;;;;6254293;23;20023;-80
2022/07/08 02:27:41;;;;;;;3.80;3.27;;;12.90;99.90;;;;;;6194841;23;20020;-83
2022/07/08 02:30:10;;;;;;;7.30;3.55;;;12.90;99.90;;;;;;6216741;23;20030;-82
2022/07/08 02:32:38;;;;;;;7.18;6.15;;;12.70;99.90;;;;;;6228039;23;20020;-82
2022/07/08 02:35:06;;;;;;;3.92;2.50;;;12.40;99.90;;;;;;6216895;23;20479;-82
2022/07/08 02:37:35;;;;;;;7.78;2.63;;;12.20;99.90;;;;;;6254969;23;20016;-81
2022/07/08 02:40:05;;;;;;;;;;;12.00;99.90;;;;;;6243315;23;20032;-80
2022/07/08 02:42:33;;;;;;;2.10;1.60;;;11.90;99.90;;;;;;6249910;23;20514;-80
2022/07/08 02:45:01;;;;;;;3.50;2.30;;;11.80;99.90;;;;;;6254852;23;20019;-81
2022/07/08 02:47:29;;;;;;;2.22;1.80;;;11.70;99.90;;;;;;6167949;23;20023;-80
2022/07/08 02:49:57;;;;;;;7.43;2.10;;;11.60;99.90;;;;;;6217034;22;20019;-80
2022/07/08 02:52:25;;;;;;;3.63;2.00;;;11.50;99.90;;;;;;6254311;23;20027;-80
2022/07/08 02:54:52;;;;;;;2.72;2.53;;;11.50;99.90;;;;;;6248631;23;20020;-80
2022/07/08 02:57:20;;;;;;;4.65;2.13;;;11.50;99.90;;;;;;6254682;23;20447;-81
2022/07/08 02:59:48;;;;;;;6.00;2.88;;;11.40;99.90;;;;;;6245083;23;20043;-80
2022/07/08 03:02:16;;;;;;;6.75;2.50;;;11.40;99.90;;;;;;6251744;23;20012;-80
2022/07/08 03:04:44;;;;;;;5.53;2.85;;;11.40;99.90;;;;;;6223014;23;20020;-79
2022/07/08 03:07:12;;;;;;;5.97;1.85;;;11.40;99.90;;;;;;6245818;22;20039;-87
2022/07/08 03:09:42;;;;;;;2.78;2.53;;;11.40;99.90;;;;;;6254187;23;20012;-88
2022/07/08 03:12:12;;;;;;;2.05;1.70;;;11.40;99.90;;;;;;6188352;23;20031;-80
2022/07/08 03:14:44;;;;;;;6.70;2.13;;;11.40;99.90;;;;;;6249815;23;20020;-80
2022/07/08 03:17:13;;;;;;;2.80;2.33;;;11.40;99.90;;;;;;6217740;23;20348;-79
2022/07/08 03:19:41;;;;;;;5.95;2.47;;;11.40;99.90;;;;;;6244556;23;20023;-80
2022/07/08 03:22:09;;;;;;;2.28;2.08;;;11.30;99.90;;;;;;6251323;22;20016;-80
2022/07/08 03:24:37;;;;;;;6.18;3.53;;;11.30;99.90;;;;;;6217478;23;20020;-80
2022/07/08 03:27:05;;;;;;;5.85;1.65;;;11.30;99.90;;;;;;6247322;23;20032;-78
2022/07/08 03:29:35;;;;;;;7.03;5.00;;;11.30;99.90;;;;;;6217469;23;20024;-80
2022/07/08 03:32:03;;;;;;;7.20;2.40;;;11.30;99.90;;;;;;6191343;23;20035;-80
2022/07/08 03:34:31;;;;;;;3.15;2.22;;;11.20;99.90;;;;;;6249193;23;20047;-80
2022/07/08 03:37:04;;;;;;;3.03;1.80;;;11.20;99.90;;;;;;6254101;23;20028;-79
2022/07/08 03:39:32;;;;;;;5.47;2.60;;;11.20;99.90;;;;;;6215060;23;20031;-79
2022/07/08 03:42:00;;;;;;;5.00;2.53;;;11.10;99.90;;;;;;6250417;23;20008;-82
2022/07/08 03:44:32;;;;;;;7.32;2.85;;;11.10;99.90;;;;;;6253388;23;20451;-79
2022/07/08 03:47:12;;;;;;;4.97;3.28;;;11.00;99.90;;;;;;6220796;23;20024;-79
2022/07/08 03:50:11;;;;;;;6.18;1.80;;;11.00;99.90;;;;;;6251380;23;20012;-79
2022/07/08 03:52:54;;;;;;;1.75;1.65;;;11.00;99.90;;;;;;6216367;23;20019;-80
2022/07/08 03:55:23;;;;;;;4.45;2.17;;;10.90;99.90;;;;;;6215491;23;20025;-79
2022/07/08 03:57:52;;;;;;;2.05;1.88;;;10.90;99.90;;;;;;6252396;23;20427;-79
2022/07/08 04:00:22;;;;;;;7.53;2.23;;;10.80;99.90;;;;;;6243573;23;20020;-81
2022/07/08 04:02:51;;;;;;;5.80;3.72;;;10.80;99.90;;;;;;6216066;23;20269;-80
2022/07/08 04:05:19;;;;;;;3.63;3.20;;;10.80;99.90;;;;;;6166073;23;20024;-79
2022/07/08 04:07:47;;;;;;;9.25;3.20;;;10.80;99.90;;;;;;6217532;23;20024;-79
2022/07/08 04:10:16;;;;;;;1.77;1.55;;;10.80;99.90;;;;;;6215337;23;20039;-80
2022/07/08 04:12:44;;;;;;;3.60;2.35;;;10.80;99.90;;;;;;6216599;23;20377;-79
2022/07/08 04:15:13;;;;;;;6.15;2.20;;;10.70;99.90;;;;;;6219308;23;20031;-79
2022/07/08 04:17:41;;;;;;;4.82;2.22;;;10.70;99.90;;;;;;6216062;23;20455;-78
2022/07/08 04:20:10;;;;;;;4.13;2.35;;;10.60;99.90;;;;;;6241250;23;20020;-79
2022/07/08 04:22:38;;;;;;;4.85;2.22;;;10.60;99.90;;;;;;6215111;23;20363;-79
2022/07/08 04:25:07;;;;;;;1.85;1.70;;;10.50;99.90;;;;;;6215154;23;20020;-79
2022/07/08 04:27:36;;;;;;;3.92;2.63;;;10.50;99.90;;;;;;6244581;23;20450;-78
2022/07/08 04:30:04;;;;;;;5.03;3.25;;;10.40;99.90;;;;;;6249027;23;20620;-79
2022/07/08 04:32:32;;;;;;;7.15;2.55;;;10.40;99.90;;;;;;6227401;23;20020;-79
2022/07/08 04:35:08;;;;;;;1.58;1.48;;;10.40;99.90;;;;;;6248544;22;20031;-78
2022/07/08 04:37:55;;;;;;;1.92;1.70;;;10.40;99.90;;;;;;6215211;23;20614;-80
2022/07/08 04:40:41;;;;;;;3.25;2.97;;;10.40;99.90;;;;;;6254059;23;20016;-79
2022/07/08 04:43:26;;;;;;;7.72;2.60;;;10.50;99.90;;;;;;6248456;22;20027;-80
2022/07/08 04:46:07;;;;;;;;;;;10.60;99.90;;;;;;6254526;23;20012;-79
2022/07/08 04:48:52;;;;;;;13.82;2.45;;;10.60;99.90;;;;;;6216392;23;19915;-79
2022/07/08 04:51:28;;;;;;;5.95;2.65;;;10.70;99.90;;;;;;6247795;22;20017;-80
2022/07/08 04:53:56;;;;;;;2.38;2.00;;;10.70;99.90;;;;;;6227677;23;20015;-80
2022/07/08 04:56:24;;;;;;;5.10;1.77;;;10.80;99.90;;;;;;6254660;23;20012;-80
2022/07/08 04:58:55;;;;;;;13.93;2.47;;;10.90;99.90;;;;;;6249228;23;20024;-78
2022/07/08 05:01:29;;;;;;;4.22;2.38;;;11.00;99.90;;;;;;6253055;23;20703;-78
2022/07/08 05:04:05;;;;;;;1.95;1.85;;;11.10;99.90;;;;;;6225186;23;20080;-78
2022/07/08 05:06:49;;;;;;;9.32;3.72;;;11.10;99.90;;;;;;6218141;23;20032;-79
2022/07/08 05:09:27;;;;;;;4.28;1.77;;;11.20;99.90;;;;;;6224677;23;20012;-79
2022/07/08 05:11:55;;;;;;;6.57;2.08;;;11.20;99.90;;;;;;6195870;23;20029;-79
2022/07/08 05:14:23;;;;;;;7.47;2.00;;;11.20;99.90;;;;;;6195140;23;20024;-78
2022/07/08 05:16:53;;;;;;;3.25;2.50;;;11.20;99.90;;;;;;6223806;23;20352;-80
2022/07/08 05:19:21;;;;;;;3.33;1.98;;;11.30;99.90;;;;;;6190550;23;20019;-80
2022/07/08 05:21:49;;;;;;;7.93;2.78;;;11.40;99.90;;;;;;6163193;23;20384;-81
2022/07/08 05:24:17;;;;;;;4.15;2.70;;;11.30;99.90;;;;;;6188434;23;20031;-80
2022/07/08 05:26:45;;;;;;;10.07;2.17;;;11.40;99.90;;;;;;6186477;23;20021;-80
2022/07/08 05:29:13;;;;;;;4.65;2.50;;;11.40;99.90;;;;;;6222757;23;20306;-80
2022/07/08 05:31:41;;;;;;;4.93;1.83;;;11.40;99.90;;;;;;6215471;23;20024;-79
2022/07/08 05:34:09;;;;;;;10.32;2.35;;;11.50;99.90;;;;;;6220340;23;20027;-81
2022/07/08 05:36:38;;;;;;;3.13;2.53;;;11.50;99.90;;;;;;6197944;23;20012;-79
2022/07/08 05:39:06;;;;;;;6.63;3.25;;;11.60;99.90;;;;;;6217581;23;20507;-80
2022/07/08 05:41:34;;;;;;;3.88;3.03;;;11.60;99.90;;;;;;6197617;23;20012;-81
2022/07/08 05:44:08;;;;;;;2.67;1.63;;;11.60;99.90;;;;;;6213481;23;20021;-79
2022/07/08 05:46:36;;;;;;;3.50;2.20;;;11.70;99.90;;;;;;6193485;23;20040;-81
2022/07/08 05:49:04;;;;;;;1.95;1.85;;;11.70;99.90;;;;;;6194432;23;20023;-80
2022/07/08 05:51:34;;;;;;;5.45;4.00;;;11.70;99.90;;;;;;6186946;23;20440;-82
2022/07/08 05:54:07;;;;;;;11.05;2.72;;;11.80;99.90;;;;;;6187861;23;20012;-82
2022/07/08 05:56:35;;;;;;;1.75;1.58;;;11.80;99.90;;;;;;6163123;23;20028;-79
2022/07/08 05:59:03;;;;;;;4.85;3.00;;;12.00;99.90;;;;;;6186970;23;20024;-81
2022/07/08 06:01:31;;;;;;;4.47;1.73;;;11.90;99.90;;;;;;6187991;23;20448;-82
2022/07/08 06:04:00;;;;;;;2.70;1.92;;;12.00;99.90;;;;;;6189212;23;20023;-82
2022/07/08 06:06:36;;;;;;;5.80;2.00;;;11.90;99.90;;;;;;6214818;23;20348;-83
2022/07/08 06:09:04;;;;;;;5.90;2.08;;;12.00;99.90;;;;;;6193170;23;20024;-84
2022/07/08 06:11:33;;;;;;;3.60;1.75;;;12.10;99.90;;;;;;6246707;23;20028;-82
2022/07/08 06:14:08;;;;;;;2.05;1.65;;;12.10;99.90;;;;;;6253177;23;20396;-82
2022/07/08 06:16:36;;;;;;;4.10;3.80;;;12.10;99.90;;;;;;6167514;23;20012;-83
2022/07/08 06:19:04;;;;;;;1.50;1.30;;;12.10;99.90;;;;;;6191254;23;20023;-82
2022/07/08 06:21:32;;;;;;;2.13;1.83;;;12.10;99.90;;;;;;6191837;23;20016;-81
2022/07/08 06:24:00;;;;;;;4.32;1.35;;;12.10;99.90;;;;;;6243830;22;20503;-82
2022/07/08 06:26:33;;;;;;;3.83;1.90;;;12.20;99.90;;;;;;6223625;23;20024;-83
2022/07/08 06:29:19;;;;;;;6.78;2.50;;;12.30;99.90;;;;;;6191270;23;20664;-86
2022/07/08 06:31:51;;;;;;;6.43;1.92;;;12.20;99.90;;;;;;6217442;23;20027;-84
2022/07/08 06:34:25;;;;;;;6.95;1.60;;;12.20;99.90;;;;;;6235208;23;20031;-83
2022/07/08 06:36:54;;;;;;;;;;;12.30;99.90;;;;;;6253449;23;20012;-85
2022/07/08 06:39:26;;;;;;;3.90;1.85;;;12.30;99.90;;;;;;6190044;23;19915;-83
2022/07/08 06:42:03;;;;;;;4.15;1.73;;;12.30;99.90;;;;;;6192420;23;20020;-84
2022/07/08 06:44:41;;;;;;;9.63;2.22;;;12.40;99.90;;;;;;6191221;23;20012;-84
2022/07/08 06:47:11;;;;;;;2.15;1.30;;;12.60;99.90;;;;;;6190059;23;20028;-83
2022/07/08 06:49:47;;;;;;;11.75;2.67;;;12.60;99.90;;;;;;6167111;23;20016;-83
2022/07/08 06:52:15;;;;;;;7.93;2.63;;;12.60;99.90;;;;;;6202883;23;20008;-82
2022/07/08 06:54:43;;;;;;;7.97;1.70;;;12.60;99.90;;;;;;6242592;22;20028;-82
2022/07/08 06:57:15;;;;;;;1.90;1.37;;;12.40;99.90;;;;;;6253575;23;20016;-83
2022/07/08 06:59:53;;;;;;;5.43;1.40;;;12.30;99.90;;;;;;6152214;23;20031;-83
2022/07/08 07:02:48;;;;;;;1.33;1.23;;;12.50;99.90;;;;;;6190275;23;20508;-84
2022/07/08 07:05:21;;;;;;;3.90;1.98;;;12.60;99.90;;;;;;6191204;23;20024;-84
2022/07/08 07:11:45;;;;;;;8.20;3.28;;;12.80;99.90;;;;;;6242684;22;19915;-84
2022/07/08 07:15:08;;;;;;;5.07;1.38;;;12.80;99.90;;;;;;6159852;23;20364;-86
2022/07/08 07:18:25;;;;;;;3.55;1.80;;;12.80;99.90;;;;;;6203094;22;20020;-85
2022/07/08 07:21:05;;;;;;;2.70;1.20;;;12.90;99.90;;;;;;6211661;23;20028;-83
2022/07/08 07:23:39;;;;;;;6.13;1.85;;;13.20;99.90;;;;;;6217310;23;20028;-84
2022/07/08 07:26:12;;;;;;;13.77;1.85;;;13.30;99.90;;;;;;6167082;23;20042;-83
2022/07/08 07:28:40;;;;;;;1.85;1.60;;;13.20;99.90;;;;;;6190349;23;20023;-83
2022/07/08 07:31:09;;;;;;;5.40;1.88;;;13.10;99.90;;;;;;6212990;23;20496;-83
2022/07/08 07:33:39;;;;;;;1.10;1.10;;;13.10;99.90;;;;;;6165833;23;20020;-83
2022/07/08 07:36:07;;;;;;;1.10;1.10;;;13.10;99.90;;;;;;6215702;23;20024;-83
2022/07/08 07:38:38;;;;;;;6.40;1.58;;;13.10;99.90;;;;;;6191604;23;20024;-83
2022/07/08 07:41:21;;;;;;;3.50;2.05;;;13.10;99.90;;;;;;6191768;23;20019;-83
2022/07/08 07:43:55;;;;;;;4.32;1.60;;;13.10;99.90;;;;;;6191899;23;20024;-83
2022/07/08 07:46:27;;;;;;;4.57;1.63;;;13.10;99.90;;;;;;6166124;23;20020;-85
2022/07/08 07:49:03;;;;;;;8.50;1.98;;;13.10;99.90;;;;;;6191686;23;20724;-83
2022/07/08 07:51:55;;;;;;;;;;;;;;;;;;;;;
2022/07/08 07:54:39;;;;;;;3.70;3.00;;;13.10;99.90;;;;;;6199519;23;20772;-87
2022/07/08 07:57:46;;;;;;;13.55;1.58;;;13.20;99.90;;;;;;6207501;23;20039;-84
2022/07/08 08:00:16;;;;;;;4.47;1.35;;;13.30;99.90;;;;;;6190814;23;20027;-82
2022/07/08 08:02:53;;;;;;;3.92;1.50;;;13.30;99.90;;;;;;6207689;23;20024;-84
2022/07/08 08:05:23;;;;;;;6.85;1.48;;;13.20;99.90;;;;;;6159860;23;20031;-83
2022/07/08 08:07:52;;;;;;;4.88;1.40;;;13.20;99.90;;;;;;6215399;23;20031;-83
2022/07/08 08:10:29;;;;;;;3.78;2.35;;;13.20;99.90;;;;;;6199499;23;20024;-85
2022/07/08 08:13:03;;;;;;;4.32;1.70;;;13.20;99.90;;;;;;6217529;23;20463;-83
2022/07/08 08:15:47;;;;;;;7.72;2.95;;;13.20;99.90;;;;;;6179512;23;20039;-83
2022/07/08 08:18:15;;;;;;;5.47;2.55;;;13.10;99.90;;;;;;6192276;23;20027;-83
2022/07/08 08:20:46;;;;;;;1.23;1.13;;;13.10;99.90;;;;;;6195191;23;20487;-84
2022/07/08 08:23:37;;;;;;;8.25;2.38;;;13.00;99.90;;;;;;6195867;23;20024;-84
2022/07/08 08:26:09;;;;;;;3.53;1.58;;;13.00;99.90;;;;;;6152290;23;20026;-84
2022/07/08 08:28:38;;;;;;;12.00;1.50;;;13.00;99.90;;;;;;6168971;23;20016;-83
2022/07/08 08:31:20;;;;;;;2.95;1.10;;;13.10;99.90;;;;;;6216546;23;20470;-85
2022/07/08 08:33:54;;;;;;;1.40;1.30;;;13.10;99.90;;;;;;6168298;22;20023;-84
2022/07/08 08:36:28;;;;;;;1.27;1.17;;;13.20;99.90;;;;;;6169511;23;20027;-85
2022/07/08 08:39:00;;;;;;;2.20;1.60;;;13.20;99.90;;;;;;6216234;23;20464;-85
2022/07/08 08:41:38;;;;;;;5.45;2.10;;;13.20;99.90;;;;;;6228086;23;20047;-82
2022/07/08 08:44:09;;;;;;;1.90;1.40;;;13.30;99.90;;;;;;6228716;22;20028;-84
2022/07/08 08:46:48;;;;;;;8.05;1.80;;;13.50;99.90;;;;;;6224201;23;20024;-84
2022/07/08 08:49:20;;;;;;;1.23;1.02;;;13.40;99.90;;;;;;6254593;23;20012;-84
2022/07/08 08:51:52;;;;;;;9.43;1.52;;;13.40;99.90;;;;;;6192125;23;20032;-83
2022/07/08 08:54:23;;;;;;;3.85;2.40;;;13.20;99.90;;;;;;6225921;23;20024;-84
2022/07/08 08:56:51;;;;;;;2.60;1.33;;;13.20;99.90;;;;;;6218417;23;20308;-85
2022/07/08 08:59:29;;;;;;;2.67;1.88;;;13.30;99.90;;;;;;6192666;23;20035;-83
2022/07/08 09:02:18;;;;;;;12.68;4.47;;;13.40;99.90;;;;;;6152926;23;20019;-84
2022/07/08 09:04:50;;;;;;;5.68;2.28;;;13.50;99.90;;;;;;6218429;23;20024;-83
2022/07/08 09:07:18;;;;;;;4.20;1.80;;;13.60;99.90;;;;;;6199939;23;20024;-83
2022/07/08 09:09:50;;;;;;;20.15;2.92;;;13.70;99.90;;;;;;6227022;23;20030;-82
2022/07/08 09:12:20;;;;;;;3.70;1.57;;;13.70;99.90;;;;;;6254470;23;20016;-82
2022/07/08 09:14:54;;;;;;;6.32;2.22;;;13.60;99.90;;;;;;6209370;23;20258;-82
2022/07/08 09:17:25;;;;;;;5.45;2.28;;;13.70;99.90;;;;;;6168805;23;20023;-82
2022/07/08 09:19:57;;;;;;;13.85;4.65;;;14.00;99.90;;;;;;6218082;23;20031;-84
2022/07/08 09:22:32;;;;;;;2.25;2.15;;;14.10;99.90;;;;;;6217513;23;20020;-84
2022/07/08 09:25:26;;;;;;;6.28;1.65;;;13.90;99.90;;;;;;6208518;23;20016;-83
2022/07/08 09:27:58;;;;;;;5.25;3.25;;;13.80;99.90;;;;;;6193389;23;20039;-82
2022/07/08 09:30:30;;;;;;;;;;;13.60;99.90;;;;;;6252646;23;20027;-83
2022/07/08 09:33:02;;;;;;;1.52;1.45;;;13.60;99.90;;;;;;6226117;23;19916;-85
2022/07/08 09:36:09;;;;;;;5.38;3.30;;;13.60;99.90;;;;;;6221240;23;20031;-82
2022/07/08 09:38:43;;;;;;;3.80;2.40;;;13.70;99.90;;;;;;6225123;23;20332;-79
2022/07/08 09:41:16;;;;;;;5.20;1.67;;;13.60;99.90;;;;;;6229101;23;20019;-82
2022/07/08 09:43:51;;;;;;;4.50;1.98;;;13.70;99.90;;;;;;6247200;22;20024;-84
2022/07/08 09:46:20;;;;;;;2.45;2.30;;;13.70;99.90;;;;;;6252799;23;20337;-83
2022/07/08 09:48:49;;;;;;;1.88;1.77;;;13.70;99.90;;;;;;6218658;23;20324;-83
2022/07/08 09:51:21;;;;;;;3.78;2.13;;;13.80;99.90;;;;;;6192266;23;20023;-82
2022/07/08 09:54:11;;;;;;;2.30;2.10;;;13.80;99.90;;;;;;6228997;23;20614;-81
2022/07/08 09:56:59;;;;;;;11.35;3.65;;;14.00;99.90;;;;;;6227016;23;20329;-83
2022/07/08 09:59:30;;;;;;;3.28;2.28;;;14.20;99.90;;;;;;6217861;23;20352;-81
2022/07/08 10:01:59;;;;;;;14.50;5.53;;;14.30;99.90;;;;;;6192923;23;20024;-82
2022/07/08 10:04:28;;;;;;;3.58;1.98;;;14.30;99.90;;;;;;6193665;23;20031;-81
2022/07/08 10:06:58;;;;;;;1.95;1.73;;;14.20;99.90;;;;;;6218048;23;20024;-82
2022/07/08 10:09:27;;;;;;;5.30;1.70;;;14.30;99.90;;;;;;6228435;23;20019;-81
2022/07/08 10:11:55;;;;;;;2.47;2.28;;;14.60;99.90;;;;;;6192817;23;20359;-80
2022/07/08 10:14:27;;;;;;;2.45;2.25;;;14.60;99.90;;;;;;6192929;23;20047;-81
2022/07/08 10:16:57;;;;;;;3.88;2.35;;;14.40;99.90;;;;;;6254617;23;20016;-83
2022/07/08 10:19:33;;;;;;;5.53;2.67;;;14.20;99.90;;;;;;6247484;23;20028;-82
2022/07/08 10:22:05;;;;;;;2.58;2.10;;;14.10;99.90;;;;;;6227969;23;20012;-80
2022/07/08 10:24:39;;;;;;;3.43;2.20;;;14.00;99.90;;;;;;6228957;23;20023;-82
2022/07/08 10:27:10;;;;;;;3.28;2.40;;;14.00;99.90;;;;;;6250227;23;20028;-81
2022/07/08 10:29:40;;;;;;;;;;;14.00;99.90;;;;;;6229532;23;20027;-82
2022/07/08 10:32:26;;;;;;;3.38;2.70;;;14.10;99.90;;;;;;6218536;23;19916;-89
2022/07/08 10:35:10;;;;;;;3.92;2.28;;;14.30;99.90;;;;;;6224055;23;20031;-86
2022/07/08 10:37:51;;;;;;;3.25;1.80;;;14.50;99.90;;;;;;6205445;23;20012;-86
2022/07/08 10:40:38;;;;;;;1.77;1.67;;;14.70;99.90;;;;;;6167561;23;20028;-86
2022/07/08 10:43:19;;;;;;;6.80;2.42;;;14.90;99.90;;;;;;6224085;23;20020;-87
2022/07/08 10:46:02;;;;;;;2.72;2.53;;;14.80;99.90;;;;;;6169224;22;20012;-87
2022/07/08 10:48:39;;;;;;;2.85;1.92;;;14.70;99.90;;;;;;6170420;23;20470;-86
2022/07/08 10:51:20;;;;;;;1.80;1.70;;;14.70;99.90;;;;;;6198318;23;20032;-86
2022/07/08 10:54:06;;;;;;;4.28;3.63;;;14.60;99.90;;;;;;6172608;22;20031;-86
2022/07/08 10:56:55;;;;;;;4.00;2.47;;;14.70;99.90;;;;;;6194187;23;20020;-86
2022/07/08 10:59:30;;;;;;;6.65;1.90;;;14.80;99.90;;;;;;6222233;23;20035;-87
2022/07/08 11:02:07;;;;;;;5.55;2.28;;;15.00;99.90;;;;;;6218463;23;20023;-85
2022/07/08 11:04:39;;;;;;;2.78;1.85;;;15.20;99.90;;;;;;6201320;23;20020;-88
2022/07/08 11:07:28;;;;;;;3.20;1.55;;;15.10;99.90;;;;;;6168840;23;20032;-88
2022/07/08 11:09:57;;;;;;;2.53;1.63;;;15.20;99.90;;;;;;6227998;23;20015;-86
2022/07/08 11:12:28;;;;;;;3.05;2.40;;;15.30;99.90;;;;;;6219148;23;20024;-87
2022/07/08 11:15:06;;;;;;;5.15;1.63;;;15.40;99.90;;;;;;6217883;23;20039;-89
2022/07/08 11:17:36;;;;;;;6.80;2.15;;;15.20;99.90;;;;;;6170068;23;20019;-86
2022/07/08 11:20:14;;;;;;;2.00;1.80;;;15.30;99.90;;;;;;6169037;23;20023;-86
2022/07/08 11:22:49;;;;;;;2.55;2.35;;;15.70;99.90;;;;;;6193728;23;20032;-87
2022/07/08 11:25:18;;;;;;;6.75;1.55;;;15.80;99.90;;;;;;6169604;23;20016;-86
2022/07/08 11:27:46;;;;;;;4.57;1.80;;;15.80;99.90;;;;;;6193680;23;20024;-87
2022/07/08 11:30:15;;;;;;;3.22;1.67;;;15.70;99.90;;;;;;6253513;22;20012;-86
2022/07/08 11:32:48;;;;;;;9.25;2.40;;;15.50;99.90;;;;;;6204497;23;20020;-89
2022/07/08 11:35:19;;;;;;;4.60;1.98;;;15.40;99.90;;;;;;6193812;23;20016;-89
2022/07/08 11:37:51;;;;;;;2.08;1.88;;;15.30;99.90;;;;;;6218221;22;20399;-90
2022/07/08 11:40:19;;;;;;;2.28;1.92;;;15.30;99.90;;;;;;6193012;23;20016;-86
2022/07/08 11:42:47;;;;;;;2.70;1.10;;;15.40;99.90;;;;;;6199309;23;20031;-85
2022/07/08 11:45:22;;;;;;;2.53;1.92;;;15.40;99.90;;;;;;6171365;23;20038;-86
2022/07/08 11:47:50;;;;;;;4.25;1.92;;;15.40;99.90;;;;;;6168536;23;20031;-87
2022/07/08 11:50:18;;;;;;;2.47;1.45;;;15.50;99.90;;;;;;6168484;23;20020;-88
2022/07/08 11:52:46;;;;;;;1.45;1.33;;;15.50;99.90;;;;;;6218995;23;20335;-89
2022/07/08 11:55:14;;;;;;;1.33;1.23;;;15.60;99.90;;;;;;6168823;23;20028;-88
2022/07/08 11:57:43;;;;;;;6.13;1.98;;;15.80;99.90;;;;;;6256491;23;20019;-88
2022/07/08 12:00:11;;;;;;;3.55;1.48;;;15.80;99.90;;;;;;6242669;23;20021;-85
2022/07/08 12:02:39;;;;;;;2.30;2.13;;;15.80;99.90;;;;;;6224825;23;20016;-85
2022/07/08 12:05:09;;;;;;;1.60;1.50;;;15.80;99.90;;;;;;6250099;23;20043;-88
2022/07/08 12:07:38;;;;;;;2.35;2.05;;;15.80;99.90;;;;;;6193125;23;20016;-86
2022/07/08 12:10:07;;;;;;;6.57;1.92;;;15.80;99.90;;;;;;6201328;22;20016;-86
2022/07/08 12:12:35;;;;;;;2.58;2.35;;;15.70;99.90;;;;;;6169392;23;20036;-85
2022/07/08 12:16:31;;;;;;;3.22;1.80;;;15.90;99.90;;;;;;6192395;23;20364;-86
2022/07/08 12:19:00;;;;;;;3.83;2.15;;;16.00;99.90;;;;;;6223016;23;20470;-87
2022/07/08 12:21:29;;;;;;;5.60;1.83;;;16.10;99.90;;;;;;6229102;23;20458;-86
2022/07/08 12:24:04;;;;;;;4.35;2.30;;;16.30;99.90;;;;;;6218107;23;20024;-86
2022/07/08 12:26:36;;;;;;;4.93;1.95;;;16.50;99.90;;;;;;6217746;23;20038;-88
2022/07/08 12:29:14;;;;;;;2.33;2.22;;;16.20;99.90;;;;;;6193715;23;20024;-89
2022/07/08 12:31:42;;;;;;;2.10;1.77;;;16.00;99.90;;;;;;6220517;23;20536;-88
2022/07/08 12:34:19;;;;;;;7.47;2.67;;;16.00;99.90;;;;;;6217966;23;20020;-88
2022/07/08 12:36:51;;;;;;;2.08;1.65;;;15.80;99.90;;;;;;6170544;23;20024;-89
2022/07/08 12:39:27;;;;;;;2.78;2.58;;;15.80;99.90;;;;;;6221916;23;20024;-89
2022/07/08 12:42:05;;;;;;;2.33;2.13;;;16.00;99.90;;;;;;6192943;22;20012;-89
2022/07/08 12:44:40;;;;;;;1.95;1.55;;;16.20;99.90;;;;;;6193561;23;20013;-88
2022/07/08 12:47:12;;;;;;;52.40;4.82;;;16.60;99.90;;;;;;6193754;23;20463;-88
2022/07/08 12:49:47;;;;;;;3.05;1.52;;;16.90;99.90;;;;;;6193745;23;20028;-88
2022/07/08 12:52:17;;;;;;;4.32;1.70;;;16.90;99.90;;;;;;6192515;23;20028;-89
2022/07/08 12:54:45;;;;;;;2.72;1.40;;;17.20;99.90;;;;;;6225706;23;20021;-87
2022/07/08 12:57:13;;;;;;;2.42;1.80;;;17.10;99.90;;;;;;6170473;23;20016;-88
2022/07/08 12:59:41;;;;;;;1.55;1.17;;;16.80;99.90;;;;;;6218680;23;20020;-87
2022/07/08 13:02:11;;;;;;;3.35;2.40;;;16.40;99.90;;;;;;6194226;23;20327;-88
2022/07/08 13:04:40;;;;;;;8.10;1.77;;;16.20;99.90;;;;;;6170334;23;20447;-87
2022/07/08 13:07:11;;;;;;;5.85;1.92;;;16.20;99.90;;;;;;6194367;23;20451;-89
2022/07/08 13:09:41;;;;;;;7.53;2.38;;;16.30;99.90;;;;;;6230655;23;20027;-87
2022/07/08 13:12:09;;;;;;;2.72;2.03;;;16.70;99.90;;;;;;6170325;23;20028;-88
2022/07/08 13:15:54;;;;;;;3.20;2.85;;;17.10;99.90;;;;;;6194480;23;20028;-87
2022/07/08 13:18:28;;;;;;;3.05;2.38;;;17.40;99.90;;;;;;6204343;23;20023;-86
2022/07/08 13:20:59;;;;;;;2.30;2.08;;;17.20;99.90;;;;;;6220104;23;20012;-89
2022/07/08 13:23:27;;;;;;;6.18;3.03;;;17.20;99.90;;;;;;6169940;23;20039;-85
2022/07/08 13:25:55;;;;;;;2.53;2.22;;;17.40;99.90;;;;;;6219220;23;20013;-87